Time;durP1;ratioP1;P1;durP2;ratioP2;P2;SDS_P1;SDS_P2;PMS_P1;PMS_P2;Temp;Humidity;BMP_temperature;BMP_pressure;BME280_temperature;BME280_humidity;BME280_pressure;Samples;Min_cycle;Max_cycle;Signal;HPM_P1;HPM_P2
2021/07/11 00:00:48;;;;;;;16.33;8.60;;;;;;;-145.18;100.00;60484.78;5061693;28;20033;-72
2021/07/11 00:03:13;;;;;;;18.33;8.43;;;;;;;-145.18;100.00;60484.78;5050175;28;20032;-72
2021/07/11 00:05:39;;;;;;;19.00;8.80;;;;;;;-145.18;100.00;60484.78;5061754;28;20058;-72
2021/07/11 00:08:05;;;;;;;16.47;7.73;;;;;;;-145.18;100.00;60484.78;5051442;28;20047;-72
2021/07/11 00:10:31;;;;;;;17.00;8.43;;;;;;;-145.18;100.00;60484.78;5061692;28;20037;-72
2021/07/11 00:12:56;;;;;;;16.67;8.13;;;;;;;-145.18;100.00;60484.78;5052281;28;20044;-72
2021/07/11 00:15:23;;;;;;;19.23;8.53;;;;;;;-145.18;100.00;60484.78;5061698;28;20032;-72
2021/07/11 00:17:54;;;;;;;18.93;8.40;;;;;;;-145.18;100.00;60484.78;5052531;28;20028;-72
2021/07/11 00:20:21;;;;;;;17.87;8.40;;;;;;;-145.18;100.00;60484.78;5061749;28;20029;-70
2021/07/11 00:22:46;;;;;;;17.47;8.10;;;;;;;-145.18;100.00;60484.78;5053695;28;20090;-71
2021/07/11 00:25:14;;;;;;;17.67;8.20;;;;;;;-145.18;100.00;60484.78;5061547;28;20843;-71
2021/07/11 00:27:40;;;;;;;19.60;8.57;;;;;;;-145.18;100.00;60484.78;5054674;28;20159;-71
2021/07/11 00:30:07;;;;;;;17.27;8.20;;;;;;;-145.18;100.00;60484.78;5061444;28;20028;-71
2021/07/11 00:32:33;;;;;;;19.63;9.23;;;;;;;-145.18;100.00;60484.78;5055869;28;20302;-71
2021/07/11 00:34:58;;;;;;;16.93;8.27;;;;;;;-145.18;100.00;60484.78;5061475;28;20032;-71
2021/07/11 00:37:24;;;;;;;21.33;8.33;;;;;;;-145.18;100.00;60484.78;5056968;28;20036;-71
2021/07/11 00:39:49;;;;;;;21.20;8.57;;;;;;;-145.18;100.00;60484.78;5061304;28;20551;-71
2021/07/11 00:42:16;;;;;;;19.57;8.27;;;;;;;-145.18;100.00;60484.78;5060891;28;20040;-71
2021/07/11 00:44:42;;;;;;;18.93;8.43;;;;;;;-145.18;100.00;60484.78;5061196;28;20039;-71
2021/07/11 00:47:08;;;;;;;27.63;9.17;;;;;;;-145.18;100.00;60484.78;5060730;28;20629;-71
2021/07/11 00:49:34;;;;;;;21.03;8.80;;;;;;;-145.18;100.00;60484.78;5060858;28;20046;-71
2021/07/11 00:51:59;;;;;;;17.97;8.20;;;;;;;-145.18;100.00;60484.78;5051622;28;20036;-71
2021/07/11 00:54:25;;;;;;;23.33;9.07;;;;;;;-145.18;100.00;60484.78;5057034;28;20043;-71
2021/07/11 00:56:50;;;;;;;19.27;8.33;;;;;;;-145.18;100.00;60484.78;5047875;28;20079;-71
2021/07/11 00:59:20;;;;;;;20.17;8.60;;;;;;;-145.18;100.00;60484.78;5064590;28;20032;-71
2021/07/11 01:01:53;;;;;;;18.60;8.43;;;;;;;-145.18;100.00;60484.78;5053251;28;20677;-70
2021/07/11 01:04:26;;;;;;;21.43;8.83;;;;;;;-145.18;100.00;60484.78;5044805;28;20083;-71
2021/07/11 01:06:57;;;;;;;17.17;8.57;;;;;;;-145.18;100.00;60484.78;5052233;28;20029;-71
2021/07/11 01:09:33;;;;;;;21.67;8.77;;;;;;;-145.18;100.00;60484.78;5057329;28;20085;-71
2021/07/11 01:12:03;;;;;;;25.27;9.57;;;;;;;-145.18;100.00;60484.78;5050907;28;20059;-71
2021/07/11 01:14:30;;;;;;;24.90;9.23;;;;;;;-145.18;100.00;60484.78;5060540;28;20252;-71
2021/07/11 01:16:57;;;;;;;19.10;8.83;;;;;;;-145.18;100.00;60484.78;5051954;28;20944;-73
2021/07/11 01:20:01;;;;;;;26.27;9.00;;;;;;;-145.18;100.00;60484.78;5060361;28;20032;-71
2021/07/11 01:22:35;;;;;;;21.53;8.80;;;;;;;-145.18;100.00;60484.78;5052604;28;20074;-71
2021/07/11 01:25:08;;;;;;;21.53;9.10;;;;;;;-145.18;100.00;60484.78;5060626;28;20044;-71
2021/07/11 01:27:34;;;;;;;24.53;8.57;;;;;;;-145.18;100.00;60484.78;5053916;28;20033;-71
2021/07/11 01:30:00;;;;;;;18.53;8.80;;;;;;;-145.18;100.00;60484.78;5060183;28;20036;-71
2021/07/11 01:32:27;;;;;;;20.50;8.33;;;;;;;-145.18;100.00;60484.78;5054584;28;20787;-71
2021/07/11 01:34:53;;;;;;;20.13;8.60;;;;;;;-145.18;100.00;60484.78;5060573;28;20032;-71
2021/07/11 01:37:20;;;;;;;24.57;8.20;;;;;;;-145.18;100.00;60484.78;5055648;28;20024;-71
2021/07/11 01:39:49;;;;;;;17.47;8.40;;;;;;;-145.18;100.00;60484.78;5060447;28;20381;-71
2021/07/11 01:42:16;;;;;;;22.93;8.53;;;;;;;-145.18;100.00;60484.78;5060068;28;20388;-71
2021/07/11 01:44:42;;;;;;;20.10;8.73;;;;;;;-145.18;100.00;60484.78;5060235;28;20162;-71
2021/07/11 01:47:08;;;;;;;22.53;8.63;;;;;;;-145.18;100.00;60484.78;5057652;28;20070;-71
2021/07/11 01:49:35;;;;;;;19.70;8.70;;;;;;;-145.18;100.00;60484.78;5059978;28;20024;-71
2021/07/11 01:52:03;;;;;;;20.57;9.10;;;;;;;-145.18;100.00;60484.78;5059250;28;20033;-71
2021/07/11 01:54:30;;;;;;;19.43;8.33;;;;;;;-145.18;100.00;60484.78;5060653;28;20040;-71
2021/07/11 01:56:55;;;;;;;18.50;8.20;;;;;;;-145.18;100.00;60484.78;5053754;28;20120;-71
2021/07/11 01:59:21;;;;;;;20.03;8.70;;;;;;;-145.18;100.00;60484.78;5062496;28;20108;-71
2021/07/11 02:01:47;;;;;;;19.97;9.20;;;;;;;-145.18;100.00;60484.78;5054442;28;20024;-71
2021/07/11 02:04:13;;;;;;;22.10;8.60;;;;;;;-145.18;100.00;60484.78;5058462;28;20072;-71
2021/07/11 02:06:38;;;;;;;20.97;8.57;;;;;;;-145.18;100.00;60484.78;5055614;28;20120;-71
2021/07/11 02:09:07;;;;;;;21.83;9.37;;;;;;;-145.18;100.00;60484.78;5058525;28;20100;-71
2021/07/11 02:11:36;;;;;;;20.50;8.73;;;;;;;-145.18;100.00;60484.78;5056287;28;20032;-71
2021/07/11 02:14:06;;;;;;;21.80;9.03;;;;;;;-145.18;100.00;60484.78;5059170;28;20055;-71
2021/07/11 02:16:55;;;;;;;19.23;8.80;;;;;;;-145.18;100.00;60484.78;5056486;28;20036;-71
2021/07/11 02:19:21;;;;;;;22.63;9.30;;;;;;;-145.18;100.00;60484.78;5039620;28;20131;-70
2021/07/11 02:21:47;;;;;;;21.07;8.60;;;;;;;-145.18;100.00;60484.78;5055322;28;20041;-71
2021/07/11 02:24:13;;;;;;;20.63;9.03;;;;;;;-145.18;100.00;60484.78;5066136;28;20643;-71
2021/07/11 02:26:41;;;;;;;27.57;9.40;;;;;;;-145.18;100.00;60484.78;5059836;28;20033;-71
2021/07/11 02:29:07;;;;;;;21.03;8.43;;;;;;;-145.18;100.00;60484.78;5065862;28;20072;-71
2021/07/11 02:31:36;;;;;;;20.77;8.43;;;;;;;-145.18;100.00;60484.78;5060968;28;20029;-70
2021/07/11 02:34:03;;;;;;;21.30;8.80;;;;;;;-145.18;100.00;60484.78;5065901;28;20051;-70
2021/07/11 02:36:30;;;;;;;20.00;8.27;;;;;;;-145.18;100.00;60484.78;5062403;28;20413;-71
2021/07/11 02:39:07;;;;;;;20.33;9.17;;;;;;;-145.18;100.00;60484.78;5065850;28;20103;-70
2021/07/11 02:41:33;;;;;;;19.97;8.33;;;;;;;-145.18;100.00;60484.78;5065168;28;20032;-70
2021/07/11 02:44:01;;;;;;;19.37;8.20;;;;;;;-145.18;100.00;60484.78;5065803;28;20427;-70
2021/07/11 02:46:32;;;;;;;21.93;8.80;;;;;;;-145.18;100.00;60484.78;5063058;28;20036;-70
2021/07/11 02:49:02;;;;;;;16.00;7.37;;;;;;;-145.18;100.00;60484.78;5065328;28;20052;-70
2021/07/11 02:51:30;;;;;;;19.47;8.23;;;;;;;-145.18;100.00;60484.78;5065373;28;20032;-71
2021/07/11 02:53:59;;;;;;;21.33;9.17;;;;;;;-145.18;100.00;60484.78;5065359;28;20043;-71
2021/07/11 02:56:27;;;;;;;18.63;8.50;;;;;;;-145.18;100.00;60484.78;5060605;28;20394;-71
2021/07/11 02:58:57;;;;;;;24.53;8.53;;;;;;;-145.18;100.00;60484.78;5062190;28;20463;-71
2021/07/11 03:01:25;;;;;;;20.43;8.57;;;;;;;-145.18;100.00;60484.78;5060890;28;20048;-71
2021/07/11 03:03:51;;;;;;;21.17;9.03;;;;;;;-145.18;100.00;60484.78;5058522;28;20064;-71
2021/07/11 03:06:17;;;;;;;20.50;8.63;;;;;;;-145.18;100.00;60484.78;5059249;28;20024;-71
2021/07/11 03:08:43;;;;;;;26.87;9.13;;;;;;;-145.18;100.00;60484.78;5058805;28;20098;-71
2021/07/11 03:11:10;;;;;;;23.37;8.30;;;;;;;-145.18;100.00;60484.78;5065179;28;20592;-71
2021/07/11 03:13:35;;;;;;;24.53;8.77;;;;;;;-145.18;100.00;60484.78;5065273;28;20050;-71
2021/07/11 03:16:01;;;;;;;19.40;8.10;;;;;;;-145.18;100.00;60484.78;5063604;28;20604;-71
2021/07/11 03:18:30;;;;;;;23.43;8.90;;;;;;;-145.18;100.00;60484.78;5058549;28;20032;-71
2021/07/11 03:20:56;;;;;;;22.73;8.40;;;;;;;-145.18;100.00;60484.78;5064265;28;20685;-72
2021/07/11 03:23:23;;;;;;;24.20;8.57;;;;;;;-145.18;100.00;60484.78;5058778;28;20024;-72
2021/07/11 03:25:50;;;;;;;18.63;7.83;;;;;;;-145.18;100.00;60484.78;5065164;28;20647;-72
2021/07/11 03:28:17;;;;;;;19.00;7.57;;;;;;;-145.18;100.00;60484.78;5051120;28;20037;-72
2021/07/11 03:30:45;;;;;;;21.20;9.27;;;;;;;-145.18;100.00;60484.78;5064851;28;20024;-72
2021/07/11 03:33:13;;;;;;;21.30;8.63;;;;;;;-145.18;100.00;60484.78;5059523;28;20090;-72
2021/07/11 03:35:58;;;;;;;26.60;8.33;;;;;;;-145.18;100.00;60484.78;5064001;28;20020;-72
2021/07/11 03:38:38;;;;;;;20.97;8.80;;;;;;;-145.18;100.00;60484.78;5061652;28;20043;-72
2021/07/11 03:41:05;;;;;;;19.27;8.00;;;;;;;-145.18;100.00;60484.78;5063937;28;20028;-72
2021/07/11 03:43:34;;;;;;;19.53;8.20;;;;;;;-145.18;100.00;60484.78;5064473;28;20028;-72
2021/07/11 03:46:03;;;;;;;24.93;8.80;;;;;;;-145.18;100.00;60484.78;5062856;28;20040;-72
2021/07/11 03:48:42;;;;;;;19.17;7.97;;;;;;;-145.18;100.00;60484.78;5064224;28;20662;-72
2021/07/11 03:51:09;;;;;;;19.53;8.10;;;;;;;-145.18;100.00;60484.78;5062015;28;20044;-72
2021/07/11 03:53:37;;;;;;;20.87;7.77;;;;;;;-145.18;100.00;60484.78;5053360;28;20039;-72
2021/07/11 03:56:04;;;;;;;20.07;8.43;;;;;;;-145.18;100.00;60484.78;5062563;28;20052;-73
2021/07/11 03:58:37;;;;;;;18.33;7.70;;;;;;;-145.18;100.00;60484.78;5057415;28;20052;-70
2021/07/11 04:01:03;;;;;;;15.97;6.70;;;;;;;-145.18;100.00;60484.78;5062355;28;20035;-73
2021/07/11 04:03:33;;;;;;;15.27;7.50;;;;;;;-145.18;100.00;60484.78;5054381;28;20024;-73
2021/07/11 04:06:01;;;;;;;18.83;7.93;;;;;;;-145.18;100.00;60484.78;5062891;28;20052;-71
2021/07/11 04:08:27;;;;;;;23.53;7.47;;;;;;;-145.18;100.00;60484.78;5054553;28;20433;-71
2021/07/11 04:10:53;;;;;;;14.83;7.57;;;;;;;-145.18;100.00;60484.78;5063799;28;20497;-71
2021/07/11 04:13:18;;;;;;;15.87;7.43;;;;;;;-145.18;100.00;60484.78;5054405;28;20032;-72
2021/07/11 04:15:50;;;;;;;16.50;6.50;;;;;;;-145.18;100.00;60484.78;5063832;28;20060;-72
2021/07/11 04:18:20;;;;;;;13.50;6.45;;;;;;;-145.18;100.00;60484.78;5054063;28;20031;-76
2021/07/11 04:20:48;;;;;;;14.53;6.07;;;;;;;-145.18;100.00;60484.78;5063678;28;20487;-75
2021/07/11 04:23:14;;;;;;;12.27;5.63;;;;;;;-145.18;100.00;60484.78;5054932;28;20024;-77
2021/07/11 04:25:42;;;;;;;12.83;5.90;;;;;;;-145.18;100.00;60484.78;5063879;28;20699;-77
2021/07/11 04:28:10;;;;;;;12.10;5.77;;;;;;;-145.18;100.00;60484.78;5056136;28;20025;-77
2021/07/11 04:30:38;;;;;;;13.40;5.80;;;;;;;-145.18;100.00;60484.78;5063989;28;20033;-77
2021/07/11 04:33:04;;;;;;;10.73;5.10;;;;;;;-145.18;100.00;60484.78;5059359;28;20032;-77
2021/07/11 04:35:30;;;;;;;12.17;6.10;;;;;;;-145.18;100.00;60484.78;5063538;28;20418;-77
2021/07/11 04:37:56;;;;;;;12.27;5.03;;;;;;;-145.18;100.00;60484.78;5058560;28;20414;-77
2021/07/11 04:40:22;;;;;;;11.07;5.47;;;;;;;-145.18;100.00;60484.78;5063479;28;20024;-75
2021/07/11 04:42:48;;;;;;;9.87;4.87;;;;;;;-145.18;100.00;60484.78;5063014;28;20073;-75
2021/07/11 04:45:16;;;;;;;12.40;5.47;;;;;;;-145.18;100.00;60484.78;5063296;28;20036;-75
2021/07/11 04:47:42;;;;;;;10.50;5.07;;;;;;;-145.18;100.00;60484.78;5060418;28;20020;-74
2021/07/11 04:50:09;;;;;;;11.20;5.67;;;;;;;-145.18;100.00;60484.78;5062754;28;20103;-74
2021/07/11 04:52:37;;;;;;;12.03;5.87;;;;;;;-145.18;100.00;60484.78;5049743;28;20087;-74
2021/07/11 04:55:08;;;;;;;12.43;6.30;;;;;;;-145.18;100.00;60484.78;5063157;28;20028;-73
2021/07/11 04:57:34;;;;;;;12.87;6.23;;;;;;;-145.18;100.00;60484.78;5054338;28;20020;-74
2021/07/11 05:00:00;;;;;;;13.80;5.80;;;;;;;-145.18;100.00;60484.78;5062428;28;20448;-73
2021/07/11 05:02:25;;;;;;;13.73;5.77;;;;;;;-145.18;100.00;60484.78;5049179;28;20024;-74
2021/07/11 05:04:52;;;;;;;16.27;6.40;;;;;;;-145.18;100.00;60484.78;5062696;28;20480;-74
2021/07/11 05:07:18;;;;;;;11.97;5.53;;;;;;;-145.18;100.00;60484.78;5052744;28;20108;-73
2021/07/11 05:09:43;;;;;;;13.63;6.13;;;;;;;-145.18;100.00;60484.78;5062971;28;20031;-73
2021/07/11 05:12:09;;;;;;;11.50;5.80;;;;;;;-145.18;100.00;60484.78;5053635;28;20409;-73
2021/07/11 05:14:35;;;;;;;13.53;6.10;;;;;;;-145.18;100.00;60484.78;5062947;28;20507;-73
2021/07/11 05:17:00;;;;;;;12.73;6.47;;;;;;;-145.18;100.00;60484.78;5055016;28;20033;-73
2021/07/11 05:19:26;;;;;;;16.73;6.30;;;;;;;-145.18;100.00;60484.78;5062775;28;20116;-73
2021/07/11 05:21:51;;;;;;;17.13;6.60;;;;;;;-145.18;100.00;60484.78;5056172;28;20496;-74
2021/07/11 05:24:23;;;;;;;12.23;6.00;;;;;;;-145.18;100.00;60484.78;5062662;28;20466;-76
2021/07/11 05:26:48;;;;;;;13.40;5.80;;;;;;;-145.18;100.00;60484.78;5057162;28;20032;-75
2021/07/11 05:29:14;;;;;;;11.57;5.33;;;;;;;-145.18;100.00;60484.78;5062712;28;20179;-75
2021/07/11 05:31:39;;;;;;;11.70;6.37;;;;;;;-145.18;100.00;60484.78;5061433;28;20078;-80
2021/07/11 05:34:07;;;;;;;11.07;6.20;;;;;;;-145.18;100.00;60484.78;5077244;28;20031;-80
2021/07/11 05:36:33;;;;;;;14.77;5.65;;;;;;;-145.18;100.00;60484.78;5076743;28;21393;-81
2021/07/11 05:38:58;;;;;;;13.00;5.22;;;;;;;-145.18;100.00;60484.78;5079585;28;20023;-82
2021/07/11 05:41:27;;;;;;;10.50;5.10;;;;;;;-145.18;100.00;60484.78;5066402;28;20513;-77
2021/07/11 05:43:52;;;;;;;9.10;5.32;;;;;;;-145.18;100.00;60484.78;5062629;28;20376;-76
2021/07/11 05:46:18;;;;;;;10.23;4.97;;;;;;;-145.18;100.00;60484.78;5061529;28;20107;-76
2021/07/11 05:48:43;;;;;;;12.45;5.15;;;;;;;-145.18;100.00;60484.78;5062505;28;20029;-77
2021/07/11 05:51:09;;;;;;;10.77;4.80;;;;;;;-145.18;100.00;60484.78;5062414;28;20576;-76
2021/07/11 05:53:34;;;;;;;9.40;5.22;;;;;;;-145.18;100.00;60484.78;5062552;28;20574;-74
2021/07/11 05:56:00;;;;;;;10.65;5.40;;;;;;;-145.18;100.00;60484.78;5061359;28;20033;-74
2021/07/11 05:58:25;;;;;;;9.50;5.28;;;;;;;-145.18;100.00;60484.78;5058372;28;20020;-74
2021/07/11 06:00:51;;;;;;;10.30;5.53;;;;;;;-145.18;100.00;60484.78;5066278;28;20159;-73
2021/07/11 06:03:18;;;;;;;11.50;5.68;;;;;;;-145.18;100.00;60484.78;5055512;28;20052;-74
2021/07/11 06:05:44;;;;;;;11.88;5.63;;;;;;;-145.18;100.00;60484.78;5066289;28;20052;-74
2021/07/11 06:08:09;;;;;;;10.05;5.57;;;;;;;-145.18;100.00;60484.78;5056454;28;20643;-74
2021/07/11 06:10:35;;;;;;;11.30;5.57;;;;;;;-145.18;100.00;60484.78;5066405;28;20066;-74
2021/07/11 06:13:01;;;;;;;10.68;5.35;;;;;;;-145.18;100.00;60484.78;5057471;28;20755;-75
2021/07/11 06:15:26;;;;;;;12.52;5.22;;;;;;;-145.18;100.00;60484.78;5066101;28;20028;-74
2021/07/11 06:17:52;;;;;;;12.32;5.60;;;;;;;-145.18;100.00;60484.78;5058566;28;20020;-74
2021/07/11 06:20:17;;;;;;;11.80;6.07;;;;;;;-145.18;100.00;60484.78;5065998;28;20059;-73
2021/07/11 06:22:43;;;;;;;12.98;6.07;;;;;;;-145.18;100.00;60484.78;5059814;28;20086;-73
2021/07/11 06:25:09;;;;;;;13.25;6.07;;;;;;;-145.18;100.00;60484.78;5066008;28;20035;-73
2021/07/11 06:27:41;;;;;;;11.52;5.70;;;;;;;-145.18;100.00;60484.78;5060567;28;20104;-73
2021/07/11 06:30:09;;;;;;;10.23;5.75;;;;;;;-145.18;100.00;60484.78;5065824;28;20048;-73
2021/07/11 06:32:36;;;;;;;10.82;5.35;;;;;;;-145.18;100.00;60484.78;5061578;28;20488;-73
2021/07/11 06:35:02;;;;;;;10.05;5.97;;;;;;;-145.18;100.00;60484.78;5065553;28;20028;-73
2021/07/11 06:37:28;;;;;;;13.57;5.93;;;;;;;-145.18;100.00;60484.78;5062685;28;20032;-72
2021/07/11 06:39:53;;;;;;;11.80;5.93;;;;;;;-145.18;100.00;60484.78;5065601;28;20117;-72
2021/07/11 06:42:19;;;;;;;11.05;5.97;;;;;;;-145.18;100.00;60484.78;5065088;28;20044;-73
2021/07/11 06:44:44;;;;;;;11.27;5.47;;;;;;;-145.18;100.00;60484.78;5065604;28;20082;-75
2021/07/11 06:47:10;;;;;;;13.77;6.30;;;;;;;-145.18;100.00;60484.78;5064679;28;20039;-73
2021/07/11 06:49:35;;;;;;;11.25;5.93;;;;;;;-145.18;100.00;60484.78;5065735;28;20028;-74
2021/07/11 06:52:03;;;;;;;10.80;5.53;;;;;;;-145.18;100.00;60484.78;5056035;28;20044;-74
2021/07/11 06:54:28;;;;;;;12.35;5.85;;;;;;;-145.18;100.00;60484.78;5062573;28;20097;-74
2021/07/11 06:56:54;;;;;;;11.27;6.03;;;;;;;-145.18;100.00;60484.78;5056859;28;20134;-74
2021/07/11 06:59:19;;;;;;;11.95;5.95;;;;;;;-145.18;100.00;60484.78;5065411;28;20105;-74
2021/07/11 07:01:45;;;;;;;10.43;5.93;;;;;;;-145.18;100.00;60484.78;5057660;28;20043;-74
2021/07/11 07:04:11;;;;;;;11.13;5.65;;;;;;;-145.18;100.00;60484.78;5061224;28;20048;-74
2021/07/11 07:06:36;;;;;;;9.95;5.68;;;;;;;-145.18;100.00;60484.78;5055793;28;20079;-73
2021/07/11 07:09:02;;;;;;;10.00;5.43;;;;;;;-145.18;100.00;60484.78;5059662;28;20043;-73
2021/07/11 07:11:28;;;;;;;12.65;5.75;;;;;;;-145.18;100.00;60484.78;5060047;28;20057;-72
2021/07/11 07:13:53;;;;;;;10.52;6.03;;;;;;;-145.18;100.00;60484.78;5061151;28;20076;-73
2021/07/11 07:16:19;;;;;;;10.48;5.47;;;;;;;-145.18;100.00;60484.78;5061077;28;20040;-73
2021/07/11 07:18:44;;;;;;;9.85;5.13;;;;;;;-145.18;100.00;60484.78;5060751;28;20388;-73
2021/07/11 07:21:10;;;;;;;13.40;5.90;;;;;;;-145.18;100.00;60484.78;5062317;28;20032;-73
2021/07/11 07:23:35;;;;;;;13.30;6.63;;;;;;;-145.18;100.00;60484.78;5060940;28;20020;-72
2021/07/11 07:26:01;;;;;;;9.95;5.40;;;;;;;-145.18;100.00;60484.78;5063610;28;20029;-72
2021/07/11 07:28:27;;;;;;;10.02;5.45;;;;;;;-145.18;100.00;60484.78;5060487;28;20017;-74
2021/07/11 07:30:52;;;;;;;11.52;5.72;;;;;;;-145.18;100.00;60484.78;5064156;28;20492;-73
2021/07/11 07:33:18;;;;;;;9.48;5.30;;;;;;;-145.18;100.00;60484.78;5060281;28;20034;-72
2021/07/11 07:35:43;;;;;;;11.45;5.72;;;;;;;-145.18;100.00;60484.78;5064755;28;20032;-73
2021/07/11 07:38:09;;;;;;;11.02;5.47;;;;;;;-145.18;100.00;60484.78;5061319;28;20032;-73
2021/07/11 07:40:34;;;;;;;11.60;5.70;;;;;;;-145.18;100.00;60484.78;5064744;28;20115;-74
2021/07/11 07:43:00;;;;;;;9.45;5.35;;;;;;;-145.18;100.00;60484.78;5064185;28;20499;-75
2021/07/11 07:45:25;;;;;;;10.48;5.32;;;;;;;-145.18;100.00;60484.78;5064493;28;20047;-74
2021/07/11 07:47:51;;;;;;;9.85;5.63;;;;;;;-145.18;100.00;60484.78;5063176;28;20039;-73
2021/07/11 07:50:17;;;;;;;10.05;5.65;;;;;;;-145.18;100.00;60484.78;5064455;28;20465;-74
2021/07/11 07:52:43;;;;;;;10.57;5.90;;;;;;;-145.18;100.00;60484.78;5050830;28;20102;-73
2021/07/11 07:55:09;;;;;;;10.77;5.63;;;;;;;-145.18;100.00;60484.78;5064577;28;20031;-73
2021/07/11 07:57:35;;;;;;;10.55;5.32;;;;;;;-145.18;100.00;60484.78;5055294;28;20523;-74
2021/07/11 08:00:01;;;;;;;10.38;5.22;;;;;;;-145.18;100.00;60484.78;5064224;28;20032;-74
2021/07/11 08:02:27;;;;;;;11.27;5.68;;;;;;;-145.18;100.00;60484.78;5053103;28;20542;-75
2021/07/11 08:04:52;;;;;;;8.82;5.10;;;;;;;-145.18;100.00;60484.78;5063853;28;20044;-75
2021/07/11 08:07:24;;;;;;;10.38;5.25;;;;;;;-145.18;100.00;60484.78;5053984;28;20060;-75
2021/07/11 08:09:49;;;;;;;;;;;;;;;-145.18;100.00;60484.78;5064825;28;20634;-75
2021/07/11 08:12:15;;;;;;;8.88;4.60;;;;;;;-145.18;100.00;60484.78;5055206;28;19997;-75
2021/07/11 08:14:43;;;;;;;8.25;4.72;;;;;;;-145.18;100.00;60484.78;5063865;28;20086;-76
2021/07/11 08:17:09;;;;;;;8.27;4.40;;;;;;;-145.18;100.00;60484.78;5056210;28;20033;-77
2021/07/11 08:19:34;;;;;;;8.43;4.50;;;;;;;-145.18;100.00;60484.78;5063534;28;20492;-77
2021/07/11 08:22:00;;;;;;;9.90;4.50;;;;;;;-145.18;100.00;60484.78;5057674;28;20038;-78
2021/07/11 08:24:25;;;;;;;10.13;5.30;;;;;;;-145.18;100.00;60484.78;5065481;28;20032;-78
2021/07/11 08:26:51;;;;;;;7.72;4.78;;;;;;;-145.18;100.00;60484.78;5053093;28;20033;-78
2021/07/11 08:29:16;;;;;;;11.10;5.00;;;;;;;-145.18;100.00;60484.78;5063960;28;20028;-78
2021/07/11 08:31:42;;;;;;;8.18;4.82;;;;;;;-145.18;100.00;60484.78;5061750;28;20025;-79
2021/07/11 08:34:08;;;;;;;9.00;4.78;;;;;;;-145.18;100.00;60484.78;5073902;28;20020;-79
2021/07/11 08:36:35;;;;;;;7.03;3.85;;;;;;;-145.18;100.00;60484.78;5068269;28;20082;-80
2021/07/11 08:39:01;;;;;;;8.02;4.30;;;;;;;-145.18;100.00;60484.78;5076208;28;20551;-81
2021/07/11 08:41:26;;;;;;;7.13;4.28;;;;;;;-145.18;100.00;60484.78;5074039;28;20036;-80
2021/07/11 08:43:55;;;;;;;7.43;4.05;;;;;;;-145.18;100.00;60484.78;5072430;28;20028;-80
2021/07/11 08:46:21;;;;;;;8.13;3.90;;;;;;;-145.18;100.00;60484.78;5070749;28;20200;-80
2021/07/11 08:48:48;;;;;;;6.10;3.72;;;;;;;-145.18;100.00;60484.78;5068798;28;20140;-79
2021/07/11 08:51:15;;;;;;;5.55;3.28;;;;;;;-145.18;100.00;60484.78;5072584;28;20073;-81
2021/07/11 08:53:44;;;;;;;5.60;3.00;;;;;;;-145.18;100.00;60484.78;5072890;28;20024;-83
2021/07/11 08:56:21;;;;;;;7.18;3.72;;;;;;;-145.18;100.00;60484.78;5073018;28;20517;-82
2021/07/11 08:58:52;;;;;;;5.70;3.20;;;;;;;-145.18;100.00;60484.78;5070913;28;20016;-81
2021/07/11 09:01:22;;;;;;;;;;;;;;;-145.18;100.00;60484.78;5073545;28;20024;-81
2021/07/11 09:04:23;;;;;;;6.90;2.55;;;;;;;-145.18;100.00;60484.78;5073513;28;19908;-80
2021/07/11 09:06:55;;;;;;;5.18;3.08;;;;;;;-145.18;100.00;60484.78;5004394;28;20057;-80
2021/07/11 09:09:34;;;;;;;5.43;2.97;;;;;;;-145.18;100.00;60484.78;5021250;28;20553;-80
2021/07/11 09:12:10;;;;;;;7.53;2.95;;;;;;;-145.18;100.00;60484.78;5003885;28;20042;-82
2021/07/11 09:14:42;;;;;;;7.65;3.20;;;;;;;-145.18;100.00;60484.78;5000217;28;20061;-83
2021/07/11 09:17:09;;;;;;;5.63;3.50;;;;;;;-145.18;100.00;60484.78;4999764;28;20041;-80
2021/07/11 09:19:53;;;;;;;5.82;3.45;;;;;;;-145.18;100.00;60484.78;5005744;28;20026;-79
2021/07/11 09:22:24;;;;;;;8.30;3.70;;;;;;;-145.18;100.00;60484.78;5006633;28;20065;-80
2021/07/11 09:25:00;;;;;;;8.18;3.45;;;;;;;-145.18;100.00;60484.78;5010574;28;20100;-78
2021/07/11 09:27:33;;;;;;;5.45;2.90;;;;;;;-145.18;100.00;60484.78;5010588;28;20132;-80
2021/07/11 09:30:02;;;;;;;5.32;3.00;;;;;;;-145.18;100.00;60484.78;5023218;28;20029;-78
2021/07/11 09:32:31;;;;;;;7.20;3.00;;;;;;;-145.18;100.00;60484.78;5014117;28;20029;-78
2021/07/11 09:35:17;;;;;;;5.78;2.70;;;;;;;-145.18;100.00;60484.78;5024893;28;20037;-79
2021/07/11 09:37:52;;;;;;;5.32;2.90;;;;;;;-145.18;100.00;60484.78;5008632;28;20061;-78
2021/07/11 09:40:19;;;;;;;7.72;2.90;;;;;;;-145.18;100.00;60484.78;5035797;28;20075;-81
2021/07/11 09:42:47;;;;;;;5.35;3.20;;;;;;;-145.18;100.00;60484.78;5066827;28;20033;-80
2021/07/11 09:45:30;;;;;;;5.28;2.78;;;;;;;-145.18;100.00;60484.78;5061263;28;20047;-79
2021/07/11 09:48:04;;;;;;;5.05;2.42;;;;;;;-145.18;100.00;60484.78;5069768;28;20044;-84
2021/07/11 09:50:29;;;;;;;4.65;2.47;;;;;;;-145.18;100.00;60484.78;5068369;28;20036;-81
2021/07/11 09:52:56;;;;;;;4.10;2.33;;;;;;;-145.18;100.00;60484.78;5071450;28;20024;-80
2021/07/11 09:55:25;;;;;;;3.83;2.20;;;;;;;-145.18;100.00;60484.78;5070442;28;20039;-80
2021/07/11 09:57:56;;;;;;;6.43;2.17;;;;;;;-145.18;100.00;60484.78;5063219;28;20040;-78
2021/07/11 10:00:25;;;;;;;3.42;1.92;;;;;;;-145.18;100.00;60484.78;5069805;28;20085;-80
2021/07/11 10:02:58;;;;;;;4.28;2.40;;;;;;;-145.18;100.00;60484.78;5055762;28;20039;-78
2021/07/11 10:05:25;;;;;;;5.63;2.30;;;;;;;-145.18;100.00;60484.78;5067191;28;20052;-80
2021/07/11 10:07:51;;;;;;;3.58;2.13;;;;;;;-145.18;100.00;60484.78;5060221;28;20184;-80
2021/07/11 10:10:21;;;;;;;4.63;2.33;;;;;;;-145.18;100.00;60484.78;5070295;28;20699;-79
2021/07/11 10:13:07;;;;;;;4.93;2.28;;;;;;;-145.18;100.00;60484.78;5063947;28;20029;-79
2021/07/11 10:15:53;;;;;;;5.07;2.33;;;;;;;-145.18;100.00;60484.78;5066175;28;20063;-81
2021/07/11 10:18:20;;;;;;;5.05;2.47;;;;;;;-145.18;100.00;60484.78;5061255;28;20086;-80
2021/07/11 10:20:56;;;;;;;7.07;2.20;;;;;;;-145.18;100.00;60484.78;5070139;28;20154;-81
2021/07/11 10:23:37;;;;;;;4.43;2.30;;;;;;;-145.18;100.00;60484.78;5054654;28;20159;-79
2021/07/11 10:26:08;;;;;;;4.03;2.40;;;;;;;-145.18;100.00;60484.78;5072347;28;20012;-82
2021/07/11 10:28:36;;;;;;;7.57;2.47;;;;;;;-145.18;100.00;60484.78;5070864;28;20040;-79
2021/07/11 10:31:03;;;;;;;3.72;2.25;;;;;;;-145.18;100.00;60484.78;5060137;28;20110;-75
2021/07/11 10:33:29;;;;;;;4.72;2.58;;;;;;;-145.18;100.00;60484.78;5060071;28;20020;-74
2021/07/11 10:36:05;;;;;;;3.85;2.17;;;;;;;-145.18;100.00;60484.78;5059396;28;20029;-77
2021/07/11 10:38:52;;;;;;;4.65;2.38;;;;;;;-145.18;100.00;60484.78;5062482;28;20020;-79
2021/07/11 10:41:23;;;;;;;4.93;2.75;;;;;;;-145.18;100.00;60484.78;5057270;28;20504;-78
2021/07/11 10:44:03;;;;;;;4.68;2.53;;;;;;;-145.18;100.00;60484.78;5061589;28;20503;-76
2021/07/11 10:46:54;;;;;;;4.03;2.15;;;;;;;-145.18;100.00;60484.78;5062858;28;20036;-77
2021/07/11 10:49:30;;;;;;;3.28;2.00;;;;;;;-145.18;100.00;60484.78;5063031;28;20017;-74
2021/07/11 10:52:08;;;;;;;5.10;2.03;;;;;;;-145.18;100.00;60484.78;5063450;28;20040;-74
2021/07/11 10:54:38;;;;;;;3.83;2.20;;;;;;;-145.18;100.00;60484.78;5063553;28;20111;-77
2021/07/11 10:57:11;;;;;;;3.88;2.10;;;;;;;-145.18;100.00;60484.78;5057163;28;20579;-78
2021/07/11 10:59:47;;;;;;;4.03;2.22;;;;;;;-145.18;100.00;60484.78;5063614;28;20050;-78
2021/07/11 11:02:23;;;;;;;4.63;2.25;;;;;;;-145.18;100.00;60484.78;5051573;28;20029;-74
2021/07/11 11:05:14;;;;;;;6.38;2.50;;;;;;;-145.18;100.00;60484.78;5047595;28;20055;-75
2021/07/11 11:08:08;;;;;;;4.70;2.70;;;;;;;-145.18;100.00;60484.78;5055273;28;20105;-76
2021/07/11 11:10:35;;;;;;;3.95;2.20;;;;;;;-145.18;100.00;60484.78;5061702;28;20051;-76